Time;durP1;ratioP1;P1;durP2;ratioP2;P2;SDS_P1;SDS_P2;PMS_P1;PMS_P2;Temp;Humidity;BMP_temperature;BMP_pressure;BME280_temperature;BME280_humidity;BME280_pressure;Samples;Min_cycle;Max_cycle;Signal;HPM_P1;HPM_P2
2022/12/03 00:00:33;;;;;;;26.45;13.27;;;;;;;2.70;100.00;101955.31;4966547;28;20485;-73
2022/12/03 00:02:58;;;;;;;33.77;12.70;;;;;;;2.66;100.00;101942.38;4966594;28;20039;-70
2022/12/03 00:05:23;;;;;;;31.83;13.27;;;;;;;2.73;100.00;101963.03;4966976;28;20038;-71
2022/12/03 00:07:48;;;;;;;24.60;11.80;;;;;;;2.68;100.00;101949.25;4965800;28;20078;-73
2022/12/03 00:10:14;;;;;;;27.60;12.38;;;;;;;2.70;100.00;101957.09;4966891;28;20049;-69
2022/12/03 00:12:39;;;;;;;26.30;11.70;;;;;;;2.66;100.00;101971.38;4965428;28;20101;-70
2022/12/03 00:15:06;;;;;;;33.90;14.93;;;;;;;2.66;100.00;101972.22;4966723;28;20795;-69
2022/12/03 00:17:31;;;;;;;29.38;13.63;;;;;;;2.73;100.00;101993.84;4966594;28;20030;-71
2022/12/03 00:19:57;;;;;;;28.30;12.93;;;;;;;2.64;100.00;101978.50;4966982;28;20520;-70
2022/12/03 00:22:23;;;;;;;27.80;12.38;;;;;;;2.66;100.00;101988.03;4965544;28;20062;-70
2022/12/03 00:24:48;;;;;;;25.02;12.55;;;;;;;2.65;100.00;101990.78;4965824;28;20035;-73
2022/12/03 00:27:13;;;;;;;29.63;14.70;;;;;;;2.72;100.00;102008.81;4965344;28;20085;-72
2022/12/03 00:29:39;;;;;;;25.67;10.90;;;;;;;2.72;100.00;102006.19;4949246;28;20810;-72
2022/12/03 00:32:04;;;;;;;23.90;10.93;;;;;;;2.69;100.00;102005.47;4965329;28;20054;-70
2022/12/03 00:34:30;;;;;;;25.27;11.07;;;;;;;2.72;100.00;101992.16;4966665;28;20031;-70
2022/12/03 00:36:55;;;;;;;23.83;10.70;;;;;;;2.77;100.00;101994.56;4965425;28;20031;-69
2022/12/03 00:39:21;;;;;;;26.03;11.23;;;;;;;2.80;100.00;101994.38;4965626;28;20031;-69
2022/12/03 00:41:46;;;;;;;20.73;10.83;;;;;;;2.77;100.00;101986.63;4949013;28;20424;-71
2022/12/03 00:44:11;;;;;;;25.07;10.23;;;;;;;2.69;100.00;101960.66;4965394;28;20042;-69
2022/12/03 00:46:37;;;;;;;21.88;11.02;;;;;;;2.70;100.00;101962.38;4964759;28;20039;-70
2022/12/03 00:49:02;;;;;;;21.97;10.03;;;;;;;2.70;100.00;101955.31;4965541;28;20026;-73
2022/12/03 00:51:27;;;;;;;19.97;10.60;;;;;;;2.63;100.00;101948.66;4966481;28;20027;-69
2022/12/03 00:53:53;;;;;;;23.27;11.85;;;;;;;2.68;100.00;101958.97;4965681;28;20035;-70
2022/12/03 00:56:18;;;;;;;24.90;10.50;;;;;;;2.71;100.00;101958.78;4965361;28;20073;-73
2022/12/03 00:58:43;;;;;;;20.90;10.10;;;;;;;2.63;100.00;101939.91;4965245;28;20046;-73
2022/12/03 01:01:09;;;;;;;22.47;10.33;;;;;;;2.68;100.00;101948.41;4968899;28;20026;-72
2022/12/03 01:03:34;;;;;;;24.07;9.27;;;;;;;2.67;100.00;101944.06;4968760;28;20026;-69
2022/12/03 01:06:00;;;;;;;20.48;10.25;;;;;;;2.66;100.00;101923.91;4970004;28;20418;-70
2022/12/03 01:08:25;;;;;;;23.05;10.10;;;;;;;2.62;100.00;101907.41;4968647;28;20411;-70
2022/12/03 01:10:51;;;;;;;21.67;11.27;;;;;;;2.69;100.00;101905.28;4969576;28;20077;-71
2022/12/03 01:13:16;;;;;;;26.40;10.17;;;;;;;2.52;100.00;101872.75;4969841;28;20030;-70
2022/12/03 01:15:41;;;;;;;17.90;9.40;;;;;;;2.67;100.00;101878.13;4968248;28;20559;-69
2022/12/03 01:18:07;;;;;;;18.63;9.97;;;;;;;2.64;100.00;101870.41;4969215;28;20492;-72
2022/12/03 01:20:32;;;;;;;22.27;10.33;;;;;;;2.72;100.00;101873.47;4968407;28;20031;-70
2022/12/03 01:22:57;;;;;;;24.93;10.47;;;;;;;2.71;100.00;101869.97;4969587;28;20142;-70
2022/12/03 01:25:23;;;;;;;19.13;10.13;;;;;;;2.66;100.00;101852.72;4969556;28;20274;-69
2022/12/03 01:27:49;;;;;;;23.25;11.48;;;;;;;2.65;100.00;101856.28;4968155;28;20038;-73
2022/12/03 01:30:14;;;;;;;24.10;10.07;;;;;;;2.59;100.00;101844.28;4969473;28;20094;-70
2022/12/03 01:32:40;;;;;;;22.00;10.13;;;;;;;2.57;100.00;101863.75;4968784;28;20034;-70
2022/12/03 01:35:06;;;;;;;19.70;10.43;;;;;;;2.66;100.00;101895.75;4968295;28;20034;-70
2022/12/03 01:37:31;;;;;;;23.50;10.00;;;;;;;2.63;100.00;101888.00;4968659;28;20031;-72
2022/12/03 01:39:56;;;;;;;22.53;9.87;;;;;;;2.68;100.00;101895.69;4968192;28;20052;-69
2022/12/03 01:42:30;;;;;;;20.77;9.73;;;;;;;2.61;100.00;101884.59;4968469;28;20365;-71
2022/12/03 01:44:57;;;;;;;19.42;8.75;;;;;;;2.62;100.00;101894.22;4968021;28;20133;-72
2022/12/03 01:47:29;;;;;;;23.10;10.38;;;;;;;2.58;100.00;101879.50;4968334;28;20034;-69
2022/12/03 01:49:57;;;;;;;20.73;9.55;;;;;;;2.57;100.00;101879.59;4970040;28;20027;-70
2022/12/03 01:52:29;;;;;;;19.30;9.13;;;;;;;2.61;100.00;101884.59;4969940;28;20050;-69
2022/12/03 01:54:57;;;;;;;19.25;9.38;;;;;;;2.50;100.00;101861.44;4969332;28;20053;-70
2022/12/03 01:57:33;;;;;;;20.05;10.43;;;;;;;2.59;100.00;101875.91;4969685;28;20073;-70
2022/12/03 01:59:59;;;;;;;20.83;10.15;;;;;;;2.64;100.00;101889.69;4960383;28;20153;-73
2022/12/03 02:02:29;;;;;;;23.75;10.55;;;;;;;2.57;100.00;101866.41;4968794;28;20543;-69
2022/12/03 02:04:56;;;;;;;20.60;8.52;;;;;;;2.57;100.00;101861.97;4967391;28;20035;-72
2022/12/03 02:07:26;;;;;;;;;;;;;;;2.51;100.00;101846.50;4968233;28;20038;-72
2022/12/03 02:09:53;;;;;;;18.45;8.13;;;;;;;2.49;100.00;101843.94;4968691;28;20678;-71
2022/12/03 02:12:25;;;;;;;24.85;9.73;;;;;;;2.60;100.00;101866.22;4968127;28;20039;-74
2022/12/03 02:14:52;;;;;;;24.58;10.00;;;;;;;2.58;100.00;101850.50;4968588;28;20089;-71
2022/12/03 02:17:17;;;;;;;;;;;;;;;2.52;100.00;101845.56;4969288;28;20543;-72
2022/12/03 02:19:43;;;;;;;20.25;9.30;;;;;;;2.53;100.00;101842.00;4967415;28;19917;-73
2022/12/03 02:22:23;;;;;;;21.80;9.93;;;;;;;2.43;100.00;101831.09;4968577;28;20037;-69
2022/12/03 02:24:58;;;;;;;21.27;10.60;;;;;;;2.47;100.00;101845.81;4968566;28;20038;-72
2022/12/03 02:27:26;;;;;;;22.65;9.77;;;;;;;2.55;100.00;101863.84;4967374;28;20030;-73
2022/12/03 02:29:51;;;;;;;19.33;8.57;;;;;;;2.61;100.00;101873.22;4967061;28;20035;-70
2022/12/03 02:32:19;;;;;;;21.38;9.35;;;;;;;2.61;100.00;101878.50;4968254;28;20038;-69
2022/12/03 02:34:44;;;;;;;18.75;8.63;;;;;;;2.60;100.00;101874.13;4966970;28;20132;-70
2022/12/03 02:37:14;;;;;;;23.35;10.10;;;;;;;2.62;100.00;101869.63;4967229;28;20035;-69
2022/12/03 02:39:43;;;;;;;18.90;9.93;;;;;;;2.67;100.00;101878.13;4968295;28;20169;-69
2022/12/03 02:44:53;;;;;;;18.13;8.07;;;;;;;2.59;100.00;101841.66;4967571;28;20421;-74
2022/12/03 02:47:21;;;;;;;21.25;9.48;;;;;;;2.60;100.00;101842.50;4967985;28;20041;-73
2022/12/03 02:49:47;;;;;;;22.08;9.25;;;;;;;2.59;100.00;101854.84;4967952;28;20035;-69
2022/12/03 02:52:19;;;;;;;25.15;10.30;;;;;;;2.52;100.00;101840.28;4967955;28;20089;-69
2022/12/03 02:54:44;;;;;;;21.45;11.10;;;;;;;2.42;100.00;101832.03;4963881;28;20054;-69
2022/12/03 02:57:10;;;;;;;20.88;9.43;;;;;;;2.38;100.00;101841.03;4968126;28;20018;-69
2022/12/03 02:59:35;;;;;;;22.48;9.50;;;;;;;2.45;100.00;101863.47;4950377;28;20034;-72
2022/12/03 03:02:01;;;;;;;22.95;10.82;;;;;;;2.47;100.00;101864.25;4967549;28;20022;-70
2022/12/03 03:04:27;;;;;;;23.33;10.38;;;;;;;2.28;100.00;101853.84;4966624;28;20034;-69
2022/12/03 03:06:53;;;;;;;27.00;11.35;;;;;;;2.27;100.00;101883.78;4967382;28;20022;-69
2022/12/03 03:09:19;;;;;;;27.42;11.95;;;;;;;2.36;100.00;101898.25;4967514;28;20031;-69
2022/12/03 03:11:45;;;;;;;24.40;11.15;;;;;;;2.35;100.00;101883.38;4966991;28;20636;-73
2022/12/03 03:14:10;;;;;;;24.50;10.68;;;;;;;2.21;100.00;101873.56;4966177;28;20079;-69
2022/12/03 03:16:36;;;;;;;31.20;12.45;;;;;;;2.27;100.00;101881.16;4966008;28;20050;-70
2022/12/03 03:19:02;;;;;;;25.88;10.40;;;;;;;2.18;100.00;101863.19;4967364;28;20014;-69
2022/12/03 03:21:28;;;;;;;24.10;11.70;;;;;;;2.26;100.00;101868.03;4967236;28;20469;-69
2022/12/03 03:23:53;;;;;;;23.50;10.50;;;;;;;2.26;100.00;101863.63;4965040;28;20747;-71
2022/12/03 03:26:18;;;;;;;31.37;12.50;;;;;;;2.20;100.00;101849.91;4965883;28;20480;-73
2022/12/03 03:28:49;;;;;;;31.73;11.32;;;;;;;2.16;100.00;101853.66;4966862;28;20031;-71
2022/12/03 03:31:19;;;;;;;26.42;10.80;;;;;;;2.19;100.00;101867.50;4967038;28;20341;-69
2022/12/03 03:33:46;;;;;;;28.42;10.07;;;;;;;2.21;100.00;101886.72;4966970;28;20043;-70
2022/12/03 03:36:13;;;;;;;27.10;12.77;;;;;;;2.19;100.00;101879.84;4967105;28;20034;-69
2022/12/03 03:38:40;;;;;;;26.73;10.88;;;;;;;2.16;100.00;101877.38;4966876;28;20038;-70
2022/12/03 03:41:06;;;;;;;;;;;;;;;2.13;100.00;101873.13;4967551;28;20027;-70
2022/12/03 03:43:33;;;;;;;23.10;11.27;;;;;;;2.13;100.00;101872.25;4966417;28;19964;-70
2022/12/03 03:46:00;;;;;;;30.50;11.98;;;;;;;2.10;100.00;101881.16;4965707;28;20411;-71
2022/12/03 03:48:26;;;;;;;19.85;9.63;;;;;;;2.10;100.00;101884.66;4967015;28;20041;-72
2022/12/03 03:50:52;;;;;;;24.42;9.63;;;;;;;2.11;100.00;101860.03;4966710;28;20039;-70
2022/12/03 03:53:18;;;;;;;20.90;9.70;;;;;;;2.14;100.00;101839.72;4965951;28;20042;-69
2022/12/03 03:55:44;;;;;;;20.45;9.00;;;;;;;2.11;100.00;101833.69;4966583;28;20081;-73
2022/12/03 03:58:09;;;;;;;21.02;8.88;;;;;;;2.12;100.00;101823.97;4965491;28;20034;-72
2022/12/03 04:00:35;;;;;;;21.52;9.43;;;;;;;2.13;100.00;101804.63;4965388;28;20026;-74
2022/12/03 04:03:02;;;;;;;26.98;11.02;;;;;;;2.13;100.00;101790.56;4966728;28;20137;-72
2022/12/03 04:05:28;;;;;;;20.05;8.73;;;;;;;2.19;100.00;101779.72;4966612;28;20019;-73
2022/12/03 04:07:53;;;;;;;21.70;9.40;;;;;;;2.10;100.00;101745.00;4966584;28;20384;-73
2022/12/03 04:13:03;;;;;;;25.25;11.68;;;;;;;1.95;100.00;101680.03;4958556;28;20282;-72
2022/12/03 04:15:29;;;;;;;;;;;;;;;2.05;100.00;101712.81;4966935;28;20043;-72
2022/12/03 04:20:40;;;;;;;26.35;9.52;;;;;;;1.89;100.00;101696.16;4965146;28;20077;-73
2022/12/03 04:23:05;;;;;;;17.60;9.02;;;;;;;1.98;100.00;101721.13;4966949;28;20038;-73
2022/12/03 04:30:58;;;;;;;22.48;10.02;;;;;;;1.98;100.00;101716.72;4966163;28;20657;-75
2022/12/03 04:36:08;;;;;;;22.75;10.45;;;;;;;1.79;100.00;101692.31;4962470;28;20796;-74
2022/12/03 04:38:33;;;;;;;23.05;11.23;;;;;;;1.75;100.00;101709.22;4969122;28;20039;-75
2022/12/03 04:41:05;;;;;;;24.10;10.50;;;;;;;1.77;100.00;101752.94;4970132;28;20027;-73
2022/12/03 04:44:31;;;;;;;24.20;10.73;;;;;;;1.91;100.00;101783.81;4970180;28;20286;-73
2022/12/03 04:46:19;;;;;;;25.55;12.10;;;;;;;1.69;100.00;101749.88;4969957;28;20483;-71
2022/12/03 04:48:44;;;;;;;20.83;9.35;;;;;;;1.74;100.00;101761.03;4969815;28;20043;-71
2022/12/03 04:51:10;;;;;;;24.83;10.93;;;;;;;1.85;100.00;101794.66;4952680;28;20034;-71
2022/12/03 04:53:35;;;;;;;28.27;10.65;;;;;;;1.92;100.00;101798.72;4969808;28;20093;-72
2022/12/03 04:56:00;;;;;;;26.77;11.53;;;;;;;1.83;100.00;101775.50;4969599;28;20066;-72
2022/12/03 04:58:26;;;;;;;27.83;11.07;;;;;;;1.80;100.00;101767.72;4969862;28;20039;-72
2022/12/03 05:00:52;;;;;;;25.75;10.68;;;;;;;1.65;100.00;101741.28;4967719;28;20034;-72
2022/12/03 05:03:17;;;;;;;24.90;11.48;;;;;;;1.73;100.00;101763.72;4968830;28;20042;-72
2022/12/03 05:05:42;;;;;;;24.83;11.73;;;;;;;1.42;100.00;101718.78;4969508;28;20026;-72
2022/12/03 05:08:08;;;;;;;24.30;11.33;;;;;;;1.36;100.00;101726.16;4969712;28;20881;-73
2022/12/03 05:10:33;;;;;;;24.63;11.83;;;;;;;1.38;100.00;101747.97;4967831;28;20038;-75
2022/12/03 05:12:59;;;;;;;25.20;11.63;;;;;;;1.33;100.00;101771.88;4968879;28;20035;-75
2022/12/03 05:15:24;;;;;;;27.80;10.93;;;;;;;1.50;100.00;101815.78;4969469;28;20282;-72
2022/12/03 05:17:49;;;;;;;23.85;11.95;;;;;;;1.50;100.00;101814.91;4969224;28;20278;-72
2022/12/03 05:22:59;;;;;;;29.92;12.43;;;;;;;1.40;100.00;101786.44;4969635;28;20285;-71
2022/12/03 05:25:25;;;;;;;31.50;12.93;;;;;;;1.31;100.00;101772.91;4967874;28;20022;-74
2022/12/03 05:27:50;;;;;;;30.70;12.57;;;;;;;1.31;100.00;101772.91;4969328;28;20038;-71
2022/12/03 05:30:15;;;;;;;25.67;11.70;;;;;;;1.36;100.00;101770.88;4952083;28;20074;-73
2022/12/03 05:32:41;;;;;;;27.02;12.10;;;;;;;1.31;100.00;101752.72;4967778;28;20027;-71
2022/12/03 05:35:07;;;;;;;30.57;13.23;;;;;;;1.40;100.00;101765.38;4968787;28;20049;-71
2022/12/03 05:37:32;;;;;;;25.52;12.23;;;;;;;1.40;100.00;101740.84;4968650;28;20332;-71
2022/12/03 05:39:57;;;;;;;24.30;10.73;;;;;;;1.40;100.00;101730.34;4967941;28;20031;-73
2022/12/03 05:45:07;;;;;;;30.35;12.52;;;;;;;1.34;100.00;101735.94;4967641;28;20034;-71
2022/12/03 05:47:32;;;;;;;26.88;12.65;;;;;;;1.27;100.00;101727.50;4967714;28;20018;-71
2022/12/03 05:49:58;;;;;;;30.47;13.47;;;;;;;1.40;100.00;101746.13;4967306;28;20559;-73
2022/12/03 05:52:23;;;;;;;27.13;11.23;;;;;;;1.22;100.00;101706.69;4967561;28;20487;-74
2022/12/03 05:54:48;;;;;;;25.77;11.80;;;;;;;1.17;100.00;101703.44;4967408;28;20051;-74
2022/12/03 05:57:14;;;;;;;28.70;11.77;;;;;;;1.18;100.00;101718.28;4968416;28;20038;-74
2022/12/03 05:59:39;;;;;;;24.47;12.03;;;;;;;1.18;100.00;101734.06;4967503;28;20030;-71
2022/12/03 06:02:04;;;;;;;30.13;12.80;;;;;;;1.12;100.00;101741.41;4967473;28;20035;-72
2022/12/03 06:04:30;;;;;;;30.50;13.23;;;;;;;1.16;100.00;101770.13;4968460;28;20033;-72
2022/12/03 06:06:55;;;;;;;24.57;13.23;;;;;;;1.30;100.00;101814.16;4968110;28;20278;-72
2022/12/03 06:09:20;;;;;;;24.15;12.00;;;;;;;1.11;100.00;101787.91;4968148;28;20085;-72
2022/12/03 06:11:46;;;;;;;31.57;11.80;;;;;;;1.01;100.00;101807.72;4968408;28;20147;-71
2022/12/03 06:14:11;;;;;;;23.08;11.23;;;;;;;0.95;100.00;101839.56;4966864;28;20660;-73
2022/12/03 06:16:37;;;;;;;28.07;12.50;;;;;;;1.03;100.00;101888.22;4967046;28;20043;-72
2022/12/03 06:19:02;;;;;;;30.57;14.23;;;;;;;0.95;100.00;101906.13;4968117;28;20038;-71
2022/12/03 06:21:27;;;;;;;27.23;12.20;;;;;;;1.11;100.00;101951.00;4966933;28;20305;-72
2022/12/03 06:23:53;;;;;;;27.43;12.53;;;;;;;1.02;100.00;101951.41;4967853;28;20333;-74
2022/12/03 06:26:18;;;;;;;36.93;13.43;;;;;;;1.10;100.00;101983.50;4967593;28;20522;-74
2022/12/03 06:28:45;;;;;;;26.27;11.70;;;;;;;1.17;100.00;102003.31;4967407;28;20714;-75
2022/12/03 06:31:11;;;;;;;30.25;13.80;;;;;;;1.19;100.00;102009.34;4967081;28;20155;-71
2022/12/03 06:33:37;;;;;;;30.77;11.63;;;;;;;1.25;100.00;102019.59;4968246;28;20023;-72
2022/12/03 06:36:03;;;;;;;32.75;13.02;;;;;;;1.26;100.00;102018.69;4968478;28;20767;-72
2022/12/03 06:38:28;;;;;;;24.15;11.95;;;;;;;1.27;100.00;102015.13;4966884;28;20042;-73
2022/12/03 06:40:54;;;;;;;29.63;13.20;;;;;;;1.31;100.00;102009.69;4966726;28;20270;-72
2022/12/03 06:43:19;;;;;;;27.17;12.57;;;;;;;1.24;100.00;101988.97;4967104;28;20082;-73
2022/12/03 06:45:44;;;;;;;26.07;13.07;;;;;;;1.25;100.00;101984.53;4968006;28;20313;-71
2022/12/03 06:48:10;;;;;;;27.90;13.37;;;;;;;1.12;100.00;101965.84;4966815;28;20026;-71
2022/12/03 06:50:35;;;;;;;32.43;13.27;;;;;;;1.12;100.00;101973.72;4967544;28;20302;-72
2022/12/03 06:53:01;;;;;;;25.13;12.20;;;;;;;0.96;100.00;101964.84;4968711;28;20037;-72
2022/12/03 06:55:26;;;;;;;30.17;14.25;;;;;;;1.01;100.00;101990.03;4967340;28;20077;-72
2022/12/03 06:57:52;;;;;;;27.80;12.23;;;;;;;0.92;100.00;101987.81;4965010;28;20062;-72
2022/12/03 07:00:17;;;;;;;28.70;13.03;;;;;;;1.05;100.00;102022.28;4967128;28;20506;-72
2022/12/03 07:02:43;;;;;;;30.35;13.38;;;;;;;1.04;100.00;102031.94;4967269;28;20758;-72
2022/12/03 07:05:09;;;;;;;31.08;14.32;;;;;;;1.09;100.00;102044.91;4967333;28;20510;-72
2022/12/03 07:07:35;;;;;;;28.67;13.13;;;;;;;1.16;100.00;102059.47;4966694;28;20109;-72
2022/12/03 07:10:00;;;;;;;33.35;13.07;;;;;;;1.21;100.00;102075.91;4966732;28;20490;-72
2022/12/03 07:12:25;;;;;;;31.65;13.15;;;;;;;1.26;100.00;102079.19;4967719;28;20034;-72
2022/12/03 07:14:51;;;;;;;31.75;13.60;;;;;;;1.22;100.00;102087.31;4966925;28;20097;-73
2022/12/03 07:17:16;;;;;;;35.03;13.53;;;;;;;1.18;100.00;102083.94;4967581;28;20043;-72
2022/12/03 07:19:41;;;;;;;36.23;14.87;;;;;;;1.22;100.00;102090.78;4966648;28;20117;-72
2022/12/03 07:22:07;;;;;;;34.03;13.50;;;;;;;1.07;100.00;102080.94;4967043;28;21003;-72
2022/12/03 07:24:32;;;;;;;32.03;13.07;;;;;;;1.18;100.00;102102.34;4967535;28;20097;-73
2022/12/03 07:26:57;;;;;;;34.40;14.23;;;;;;;1.23;100.00;102103.00;4967398;28;20377;-72
2022/12/03 07:29:23;;;;;;;29.77;13.90;;;;;;;1.31;100.00;102104.44;4966936;28;20049;-72
2022/12/03 07:31:48;;;;;;;34.88;13.80;;;;;;;1.34;100.00;102110.41;4966933;28;20113;-73
2022/12/03 07:34:14;;;;;;;32.63;14.60;;;;;;;1.37;100.00;102102.38;4966225;28;20125;-72
2022/12/03 07:36:39;;;;;;;35.22;15.32;;;;;;;1.35;100.00;102100.75;4966860;28;20023;-72
2022/12/03 07:39:04;;;;;;;34.40;14.63;;;;;;;1.26;100.00;102087.09;4967431;28;20480;-72
2022/12/03 07:41:30;;;;;;;35.45;14.55;;;;;;;1.15;100.00;102073.56;4965799;28;20062;-73
2022/12/03 07:43:55;;;;;;;34.67;15.67;;;;;;;1.19;100.00;102059.31;4965889;28;20403;-72
2022/12/03 07:46:20;;;;;;;32.33;13.15;;;;;;;1.31;100.00;102073.72;4967149;28;20436;-72
2022/12/03 07:48:46;;;;;;;32.23;14.30;;;;;;;1.30;100.00;102065.91;4966993;28;20038;-72
2022/12/03 07:51:11;;;;;;;34.77;14.20;;;;;;;1.34;100.00;102070.09;4965562;28;20030;-72
2022/12/03 07:53:36;;;;;;;32.90;15.10;;;;;;;1.41;100.00;102068.91;4965443;28;20854;-72
2022/12/03 07:56:03;;;;;;;32.78;14.35;;;;;;;1.33;100.00;102063.97;4967144;28;20312;-72
2022/12/03 07:58:30;;;;;;;36.50;15.32;;;;;;;1.31;100.00;102049.16;4965495;28;20035;-72
2022/12/03 08:00:55;;;;;;;33.75;14.35;;;;;;;1.35;100.00;102053.38;4966839;28;20030;-72
2022/12/03 08:03:21;;;;;;;30.10;13.50;;;;;;;1.28;100.00;102044.91;4966811;28;20031;-72
2022/12/03 08:05:47;;;;;;;31.35;13.35;;;;;;;1.26;100.00;102045.00;4966767;28;20030;-72
2022/12/03 08:08:12;;;;;;;33.85;13.85;;;;;;;1.33;100.00;102056.06;4967024;28;20423;-72
2022/12/03 08:10:38;;;;;;;37.28;14.85;;;;;;;1.30;100.00;102056.22;4969019;28;20047;-72
2022/12/03 08:13:12;;;;;;;33.75;13.77;;;;;;;1.16;100.00;102043.69;4971002;28;20475;-72
2022/12/03 08:15:37;;;;;;;33.47;14.13;;;;;;;1.28;100.00;102060.69;4970282;28;20494;-72
2022/12/03 08:18:11;;;;;;;31.73;13.75;;;;;;;1.33;100.00;102058.69;4971046;28;20039;-72
2022/12/03 08:20:39;;;;;;;34.55;14.15;;;;;;;1.34;100.00;102056.94;4969891;28;20049;-72
2022/12/03 08:23:16;;;;;;;31.05;14.55;;;;;;;1.43;100.00;102067.06;4970770;28;20113;-72
2022/12/03 08:25:43;;;;;;;30.15;12.85;;;;;;;1.44;100.00;102058.22;4970413;28;20089;-72
2022/12/03 08:28:17;;;;;;;34.03;13.75;;;;;;;1.19;100.00;102037.44;4970774;28;20037;-72
2022/12/03 08:30:45;;;;;;;29.50;13.48;;;;;;;1.37;100.00;102048.91;4969118;28;20045;-71
2022/12/03 08:33:25;;;;;;;31.90;13.60;;;;;;;1.53;100.00;102063.06;4970619;28;20089;-71
2022/12/03 08:35:51;;;;;;;35.45;15.57;;;;;;;1.51;100.00;102043.00;4969783;28;20126;-71
2022/12/03 08:38:20;;;;;;;29.38;15.50;;;;;;;1.56;100.00;102039.22;4970776;28;20205;-71
2022/12/03 08:40:48;;;;;;;33.00;14.68;;;;;;;1.54;100.00;102032.31;4969055;28;20022;-71
2022/12/03 08:43:23;;;;;;;34.30;16.13;;;;;;;1.61;100.00;102031.09;4970620;28;20038;-71
2022/12/03 08:45:50;;;;;;;28.77;13.55;;;;;;;1.66;100.00;102035.22;4970303;28;20055;-71
2022/12/03 08:48:48;;;;;;;34.85;14.95;;;;;;;1.37;100.00;102007.63;4968811;28;20038;-71
2022/12/03 08:51:21;;;;;;;35.53;15.05;;;;;;;1.46;100.00;102020.38;4951380;28;20046;-71
2022/12/03 08:53:49;;;;;;;37.92;16.35;;;;;;;1.55;100.00;102039.31;4967618;28;20089;-70
2022/12/03 08:56:24;;;;;;;45.22;17.65;;;;;;;1.56;100.00;102041.84;4951468;28;20038;-71
2022/12/03 08:59:27;;;;;;;43.58;16.83;;;;;;;1.56;100.00;102049.75;4951428;28;20138;-71
2022/12/03 09:01:52;;;;;;;40.67;16.17;;;;;;;1.60;100.00;102056.56;4950897;28;20030;-71
2022/12/03 09:04:34;;;;;;;39.35;16.65;;;;;;;1.62;100.00;102057.34;4951409;28;20543;-70
2022/12/03 09:07:00;;;;;;;41.20;16.83;;;;;;;1.63;100.00;102059.06;4959808;28;20134;-71
2022/12/03 09:09:26;;;;;;;40.38;15.32;;;;;;;1.57;100.00;102053.22;4967559;28;20110;-71
2022/12/03 09:11:52;;;;;;;35.08;16.58;;;;;;;1.59;100.00;102054.88;4951576;28;20466;-71
2022/12/03 09:14:21;;;;;;;38.03;15.70;;;;;;;1.53;100.00;102052.53;4967306;28;20047;-72
2022/12/03 09:16:47;;;;;;;39.78;17.35;;;;;;;1.53;100.00;102056.94;4966864;28;20039;-71
2022/12/03 09:19:12;;;;;;;39.45;16.25;;;;;;;1.51;100.00;102048.25;4967190;28;20097;-71
2022/12/03 09:21:37;;;;;;;42.80;16.30;;;;;;;1.51;100.00;102054.38;4966713;28;20090;-71
2022/12/03 09:24:03;;;;;;;36.33;15.50;;;;;;;1.48;100.00;102046.63;4967235;28;20393;-71
2022/12/03 09:26:28;;;;;;;44.70;17.27;;;;;;;1.57;100.00;102050.59;4967866;28;20294;-71
2022/12/03 09:28:54;;;;;;;48.63;18.90;;;;;;;1.61;100.00;102049.53;4969822;28;20050;-71
2022/12/03 09:31:19;;;;;;;41.15;18.33;;;;;;;1.59;100.00;102046.97;4968879;28;20314;-71
2022/12/03 09:33:45;;;;;;;35.35;16.33;;;;;;;1.62;100.00;102040.72;4967852;28;20022;-71
2022/12/03 09:36:10;;;;;;;36.97;16.63;;;;;;;1.61;100.00;102044.25;4969280;28;20059;-71
2022/12/03 09:38:35;;;;;;;45.10;18.40;;;;;;;1.61;100.00;102045.09;4968991;28;20181;-71
2022/12/03 09:41:01;;;;;;;40.33;16.20;;;;;;;1.63;100.00;102040.63;4969250;28;20121;-70
2022/12/03 09:43:29;;;;;;;34.57;16.37;;;;;;;1.59;100.00;102036.44;4968613;28;20289;-71
2022/12/03 09:45:55;;;;;;;45.28;17.92;;;;;;;1.63;100.00;102038.00;4969049;28;21015;-70
2022/12/03 09:48:21;;;;;;;41.15;17.40;;;;;;;1.61;100.00;102034.56;4969219;28;20030;-71
2022/12/03 09:50:47;;;;;;;42.72;18.25;;;;;;;1.61;100.00;102034.56;4969021;28;20031;-72
2022/12/03 09:53:19;;;;;;;47.67;21.20;;;;;;;1.57;100.00;102033.03;4969529;28;20058;-73
2022/12/03 09:55:46;;;;;;;46.95;19.83;;;;;;;1.63;100.00;102040.63;4969213;28;20520;-70
2022/12/03 09:58:14;;;;;;;53.45;21.90;;;;;;;1.62;100.00;102031.03;4967966;28;20014;-70
2022/12/03 10:00:42;;;;;;;44.55;21.48;;;;;;;1.60;100.00;102027.63;4968914;28;20444;-70
2022/12/03 10:03:12;;;;;;;48.13;19.98;;;;;;;1.67;100.00;102033.44;4969078;28;20037;-70
2022/12/03 10:05:38;;;;;;;55.78;23.30;;;;;;;1.64;100.00;102031.81;4969096;28;20255;-73
2022/12/03 10:08:06;;;;;;;46.53;20.40;;;;;;;1.71;100.00;102036.78;4968986;28;20096;-71
2022/12/03 10:10:33;;;;;;;40.75;17.83;;;;;;;1.70;100.00;102028.03;4967330;28;20043;-70
2022/12/03 10:12:59;;;;;;;47.03;19.80;;;;;;;1.71;100.00;102027.13;4968971;28;20031;-71
2022/12/03 10:15:24;;;;;;;56.70;23.40;;;;;;;1.69;100.00;102016.66;4968876;28;20519;-70
2022/12/03 10:17:53;;;;;;;57.17;27.67;;;;;;;1.73;100.00;102012.06;4969029;28;20059;-71
2022/12/03 10:20:21;;;;;;;46.33;22.15;;;;;;;1.73;100.00;102013.84;4968783;28;20786;-72
2022/12/03 10:22:47;;;;;;;44.72;20.88;;;;;;;1.71;100.00;102013.06;4967800;28;20026;-71
2022/12/03 10:25:21;;;;;;;52.10;21.83;;;;;;;1.67;100.00;102007.97;4967818;28;20606;-69
2022/12/03 10:27:57;;;;;;;55.08;27.65;;;;;;;1.58;100.00;101991.75;4967615;28;20432;-73
2022/12/03 10:30:25;;;;;;;40.95;16.55;;;;;;;1.62;100.00;101996.81;4967981;28;20086;-70
2022/12/03 10:32:51;;;;;;;43.40;19.70;;;;;;;1.65;100.00;101993.16;4966924;28;20700;-73
2022/12/03 10:35:20;;;;;;;44.97;19.15;;;;;;;1.68;100.00;101999.13;4967635;28;20085;-73
2022/12/03 10:38:15;;;;;;;47.60;19.95;;;;;;;1.75;100.00;102010.22;4966616;28;20492;-71
2022/12/03 10:40:40;;;;;;;34.15;16.27;;;;;;;1.73;100.00;101995.41;4965381;28;20085;-72
2022/12/03 10:43:22;;;;;;;44.92;20.85;;;;;;;1.73;100.00;101995.41;4966835;28;20070;-71
2022/12/03 10:46:10;;;;;;;40.33;17.45;;;;;;;1.79;100.00;101995.13;4966484;28;20078;-71
2022/12/03 10:48:36;;;;;;;40.30;17.38;;;;;;;1.78;100.00;101989.03;4965442;28;20031;-72
2022/12/03 10:51:12;;;;;;;46.40;21.50;;;;;;;1.72;100.00;101983.19;4967236;28;20626;-73
2022/12/03 10:53:39;;;;;;;39.20;17.25;;;;;;;1.75;100.00;101964.59;4950788;28;20035;-72
2022/12/03 10:56:07;;;;;;;39.28;18.20;;;;;;;1.79;100.00;101974.06;4967027;28;20114;-71
2022/12/03 10:58:37;;;;;;;39.55;17.45;;;;;;;1.64;100.00;101963.38;4967088;28;20299;-71
2022/12/03 11:01:13;;;;;;;37.55;18.02;;;;;;;1.38;100.00;101933.06;4966940;28;20023;-71
2022/12/03 11:03:39;;;;;;;;;;;;;;;1.18;100.00;101910.31;4967184;28;20551;-71
2022/12/03 11:06:04;;;;;;;;;;;;;;;1.15;100.00;101905.22;4967863;28;19964;-71
2022/12/03 11:08:33;;;;;;;;;;;;;;;0.98;100.00;101887.59;4966960;28;20004;-71
2022/12/03 11:10:58;;;;;;;;;;;;;;;0.92;100.00;101877.38;4959865;28;19922;-71
2022/12/03 11:13:33;;;;;;;;;;;;;;;1.02;100.00;101881.25;4966962;28;19960;-71
2022/12/03 11:16:02;;;;;;;;;;;;;;;1.10;100.00;101890.56;4960272;28;20055;-71
2022/12/03 11:18:37;;;;;;;;;;;;;;;1.03;100.00;101879.47;4966907;28;20803;-71
2022/12/03 11:21:04;;;;;;;;;;;;;;;0.81;100.00;101855.97;4961115;28;20371;-71
2022/12/03 11:23:44;;;;;;;;;;;;;;;0.74;100.00;101847.53;4966216;28;20326;-71
2022/12/03 11:26:10;;;;;;;;;;;;;;;0.83;100.00;101854.97;4961769;28;20311;-73
2022/12/03 11:28:36;;;;;;;;;;;;;;;0.99;100.00;101859.53;4965619;28;19933;-71
2022/12/03 11:31:10;;;;;;;;;;;;;;;0.81;100.00;101842.84;4967263;28;19918;-72
2022/12/03 11:33:37;;;;;;;;;;;;;;;0.82;100.00;101834.88;4966855;28;19914;-71
2022/12/03 11:36:02;;;;;;;;;;;;;;;0.95;100.00;101844.81;4965922;28;19916;-71
2022/12/03 11:38:37;;;;;;;;;;;;;;;0.97;100.00;101845.59;4966285;28;19918;-71